Time;durP1;ratioP1;P1;durP2;ratioP2;P2;SDS_P1;SDS_P2;PMS_P1;PMS_P2;Temp;Humidity;BMP_temperature;BMP_pressure;BME280_temperature;BME280_humidity;BME280_pressure;Samples;Min_cycle;Max_cycle;Signal;HPM_P1;HPM_P2
2023/12/08 00:00:10;;;;;;;18.85;10.48;;;;;;;3.80;77.54;100460.31;3606086;39;20059;-65
2023/12/08 00:02:36;;;;;;;16.27;10.27;;;;;;;4.00;77.02;100488.78;3608355;39;20047;-65
2023/12/08 00:05:03;;;;;;;16.33;11.50;;;;;;;3.98;77.37;100487.97;3608648;39;20054;-64
2023/12/08 00:07:28;;;;;;;16.45;10.40;;;;;;;3.99;77.55;100489.69;3608497;39;20050;-65
2023/12/08 00:09:54;;;;;;;14.55;10.45;;;;;;;3.98;77.12;100490.63;3610614;39;20071;-65
2023/12/08 00:12:20;;;;;;;14.50;10.38;;;;;;;3.98;76.79;100487.97;3606375;39;20326;-64
2023/12/08 00:14:45;;;;;;;15.30;10.70;;;;;;;3.98;76.56;100477.34;3605870;39;20125;-64
2023/12/08 00:17:11;;;;;;;14.98;10.13;;;;;;;3.75;76.83;100433.94;3606364;39;20051;-64
2023/12/08 00:19:37;;;;;;;15.77;10.85;;;;;;;3.99;77.10;100465.75;3610937;39;20047;-64
2023/12/08 00:22:03;;;;;;;15.32;10.63;;;;;;;3.97;77.28;100470.28;3604639;39;20089;-65
2023/12/08 00:24:28;;;;;;;16.80;10.75;;;;;;;4.02;76.56;100470.97;3607250;39;20066;-64
2023/12/08 00:26:54;;;;;;;15.13;10.93;;;;;;;4.03;76.79;100472.69;3607905;39;20075;-64
2023/12/08 00:29:20;;;;;;;16.15;10.98;;;;;;;4.05;77.12;100470.84;3607203;39;20429;-64
2023/12/08 00:31:46;;;;;;;15.88;11.27;;;;;;;4.04;76.85;100463.78;3608819;39;20063;-64
2023/12/08 00:34:11;;;;;;;13.55;10.18;;;;;;;4.08;76.81;100454.75;3607388;39;20049;-64
2023/12/08 00:36:39;;;;;;;16.02;11.00;;;;;;;4.08;76.89;100454.75;3604809;39;20055;-64
2023/12/08 00:39:05;;;;;;;15.75;10.88;;;;;;;4.09;77.11;100453.81;3604788;39;20063;-65
2023/12/08 00:41:31;;;;;;;15.20;11.40;;;;;;;4.09;76.69;100454.72;3606288;39;20375;-64
2023/12/08 00:43:57;;;;;;;16.40;10.60;;;;;;;4.12;76.37;100453.69;3607091;39;20065;-64
2023/12/08 00:46:22;;;;;;;15.82;11.40;;;;;;;4.14;76.61;100450.03;3609997;39;20135;-64
2023/12/08 00:48:48;;;;;;;15.73;11.07;;;;;;;4.16;76.15;100450.00;3612278;39;20050;-64
2023/12/08 00:51:14;;;;;;;16.05;10.30;;;;;;;4.17;76.56;100449.91;3609598;39;20058;-64
2023/12/08 00:53:42;;;;;;;16.33;11.05;;;;;;;4.17;76.77;100447.25;3609972;39;20058;-64
2023/12/08 00:56:09;;;;;;;14.90;10.75;;;;;;;4.19;77.10;100448.06;3606267;39;20047;-65
2023/12/08 00:58:36;;;;;;;14.95;11.00;;;;;;;4.20;76.57;100440.94;3609401;39;20058;-64
2023/12/08 01:01:02;;;;;;;15.43;10.57;;;;;;;4.19;76.25;100431.25;3606233;39;20051;-64
2023/12/08 01:03:27;;;;;;;16.02;10.43;;;;;;;4.22;75.88;100435.53;3613319;39;20057;-64
2023/12/08 01:05:53;;;;;;;15.82;11.98;;;;;;;4.22;76.15;100436.44;3611880;39;20058;-65
2023/12/08 01:08:19;;;;;;;15.63;11.23;;;;;;;4.22;76.22;100424.91;3609500;39;20063;-64
2023/12/08 01:10:44;;;;;;;16.42;10.45;;;;;;;4.22;76.05;100424.91;3611017;39;20074;-64
2023/12/08 01:13:10;;;;;;;14.70;10.95;;;;;;;4.21;76.06;100426.72;3610190;39;20399;-65
2023/12/08 01:15:35;;;;;;;16.70;10.68;;;;;;;4.20;76.60;100419.66;3607944;39;20063;-64
2023/12/08 01:18:01;;;;;;;16.90;11.90;;;;;;;4.23;76.40;100422.19;3609775;39;20043;-64
2023/12/08 01:20:27;;;;;;;16.15;11.57;;;;;;;4.21;76.44;100416.06;3611198;39;20054;-64
2023/12/08 01:22:52;;;;;;;16.17;11.02;;;;;;;4.20;76.78;100414.34;3608127;39;20055;-64
2023/12/08 01:25:18;;;;;;;14.93;10.07;;;;;;;4.20;77.81;100398.38;3609005;39;20063;-64
2023/12/08 01:27:43;;;;;;;15.73;10.73;;;;;;;4.24;77.44;100402.63;3605090;39;20388;-64
2023/12/08 01:30:10;;;;;;;15.18;11.60;;;;;;;4.21;77.37;100407.22;3606094;39;20055;-64
2023/12/08 01:32:36;;;;;;;13.52;9.95;;;;;;;4.19;76.84;100404.66;3609587;39;20069;-64
2023/12/08 01:35:02;;;;;;;15.52;11.23;;;;;;;4.20;77.43;100387.75;3607051;39;20055;-64
2023/12/08 01:37:27;;;;;;;15.30;10.60;;;;;;;4.19;77.47;100391.34;3607069;39;20136;-64
2023/12/08 01:39:53;;;;;;;17.75;11.43;;;;;;;4.19;78.07;100388.69;3611523;39;20062;-64
2023/12/08 01:42:18;;;;;;;15.18;10.98;;;;;;;4.18;78.04;100386.94;3604196;39;20063;-65
2023/12/08 01:44:44;;;;;;;15.07;11.15;;;;;;;4.17;78.53;100390.53;3603382;39;20067;-64
2023/12/08 01:47:12;;;;;;;17.30;11.52;;;;;;;4.16;79.33;100378.19;3605884;39;20062;-65
2023/12/08 01:49:40;;;;;;;16.30;11.18;;;;;;;4.15;79.46;100373.75;3602197;39;20313;-65
2023/12/08 01:52:09;;;;;;;13.85;10.82;;;;;;;4.18;79.34;100377.16;3609082;39;20087;-65
2023/12/08 01:54:35;;;;;;;16.73;11.05;;;;;;;4.16;80.07;100384.34;3607360;39;20338;-64
2023/12/08 01:57:02;;;;;;;16.13;11.52;;;;;;;4.15;80.32;100381.75;3606489;39;20064;-64
2023/12/08 01:59:30;;;;;;;16.00;10.93;;;;;;;4.14;80.18;100377.38;3608120;39;20364;-64
2023/12/08 02:01:56;;;;;;;16.23;11.32;;;;;;;4.11;80.14;100378.34;3610020;39;20055;-64
2023/12/08 02:04:22;;;;;;;16.63;11.50;;;;;;;4.12;79.86;100376.56;3610342;39;20098;-64
2023/12/08 02:06:48;;;;;;;13.88;10.77;;;;;;;4.10;80.14;100375.78;3598925;39;20058;-64
2023/12/08 02:09:15;;;;;;;16.27;11.48;;;;;;;4.08;80.25;100370.50;3606424;39;20047;-65
2023/12/08 02:11:40;;;;;;;16.55;11.68;;;;;;;3.43;81.37;100255.41;3608681;39;20106;-65
2023/12/08 02:14:06;;;;;;;17.35;11.57;;;;;;;4.07;81.51;100360.81;3614174;39;20173;-65
2023/12/08 02:17:11;;;;;;;15.95;11.23;;;;;;;4.07;82.11;100351.97;3608681;39;20309;-65
2023/12/08 02:19:37;;;;;;;16.48;11.60;;;;;;;4.07;82.86;100346.66;3609425;39;20050;-66
2023/12/08 02:22:05;;;;;;;15.63;11.70;;;;;;;4.08;83.88;100343.03;3611672;39;20062;-65
2023/12/08 02:24:30;;;;;;;16.77;11.57;;;;;;;4.07;83.79;100330.69;3611207;39;20115;-65
2023/12/08 02:26:56;;;;;;;18.92;11.07;;;;;;;4.06;83.00;100329.84;3609093;39;20067;-66
2023/12/08 02:29:23;;;;;;;17.92;11.52;;;;;;;3.99;82.92;100322.16;3607812;39;20115;-66
2023/12/08 02:32:01;;;;;;;18.52;12.63;;;;;;;3.97;84.60;100337.34;3608119;39;20070;-65
2023/12/08 02:34:31;;;;;;;15.30;11.20;;;;;;;3.99;84.29;100346.09;3611861;39;20058;-65
2023/12/08 02:37:02;;;;;;;16.45;11.32;;;;;;;3.91;85.06;100339.31;3611180;39;20392;-66
2023/12/08 02:39:30;;;;;;;16.98;11.25;;;;;;;3.86;84.89;100341.28;3614894;39;20061;-66
2023/12/08 02:41:56;;;;;;;16.83;11.73;;;;;;;3.88;85.67;100331.47;3608718;39;20044;-65
2023/12/08 02:44:22;;;;;;;15.18;11.40;;;;;;;3.87;85.63;100332.41;3608966;39;20075;-66
2023/12/08 02:46:48;;;;;;;17.50;12.45;;;;;;;3.85;86.58;100336.91;3608411;39;20067;-66
2023/12/08 02:49:14;;;;;;;17.55;12.57;;;;;;;3.79;86.86;100326.53;3608849;39;20059;-65
2023/12/08 02:51:39;;;;;;;19.27;12.68;;;;;;;3.87;87.35;100327.09;3602642;39;20066;-65
2023/12/08 02:54:05;;;;;;;16.33;12.63;;;;;;;3.87;87.19;100321.78;3612462;39;20286;-65
2023/12/08 02:56:31;;;;;;;18.40;12.23;;;;;;;3.86;87.23;100338.63;3608896;39;20058;-65
2023/12/08 02:58:56;;;;;;;17.27;11.85;;;;;;;3.87;87.55;100347.47;3610181;39;20349;-65
2023/12/08 03:01:22;;;;;;;15.23;11.45;;;;;;;3.88;88.09;100336.78;3607946;39;20082;-65
2023/12/08 03:03:47;;;;;;;16.63;11.98;;;;;;;3.89;88.01;100341.16;3606507;39;20059;-65
2023/12/08 03:06:13;;;;;;;16.27;12.13;;;;;;;3.64;88.38;100295.28;3609937;39;20054;-65
2023/12/08 03:08:38;;;;;;;20.08;12.45;;;;;;;3.88;88.50;100344.75;3611683;39;20054;-65
2023/12/08 03:11:04;;;;;;;16.65;12.68;;;;;;;3.91;88.89;100347.28;3609567;39;20371;-65
2023/12/08 03:13:30;;;;;;;18.30;12.95;;;;;;;3.90;88.84;100344.69;3597884;39;20036;-65
2023/12/08 03:15:55;;;;;;;17.23;12.75;;;;;;;3.88;89.11;100342.09;3609621;39;20062;-65
2023/12/08 03:18:21;;;;;;;17.88;13.25;;;;;;;3.90;89.28;100337.59;3611931;39;20066;-65
2023/12/08 03:20:47;;;;;;;18.38;13.15;;;;;;;3.92;89.51;100341.03;3616395;39;20076;-65
2023/12/08 03:23:12;;;;;;;17.63;13.35;;;;;;;3.88;88.95;100339.44;3607147;39;20062;-65
2023/12/08 03:25:38;;;;;;;20.17;13.85;;;;;;;3.85;89.41;100328.94;3605297;39;20098;-65
2023/12/08 03:28:04;;;;;;;18.05;12.63;;;;;;;3.82;89.99;100315.78;3608542;39;20054;-64
2023/12/08 03:30:29;;;;;;;18.85;13.45;;;;;;;3.89;89.81;100327.88;3607455;39;20063;-65
2023/12/08 03:32:55;;;;;;;18.35;12.60;;;;;;;3.91;90.22;100325.16;3606170;39;20059;-65
2023/12/08 03:35:20;;;;;;;19.40;13.65;;;;;;;3.92;90.36;100330.41;3604178;39;20287;-65
2023/12/08 03:37:46;;;;;;;18.40;13.35;;;;;;;3.92;90.06;100333.06;3608650;39;20074;-65
2023/12/08 03:40:12;;;;;;;18.13;14.30;;;;;;;3.92;90.88;100333.06;3605066;39;20055;-65
2023/12/08 03:42:38;;;;;;;19.63;13.15;;;;;;;3.94;90.02;100336.53;3605899;39;20109;-65
2023/12/08 03:45:05;;;;;;;21.73;15.63;;;;;;;3.60;90.25;100272.41;3608452;39;20071;-65
2023/12/08 03:47:30;;;;;;;18.95;13.23;;;;;;;3.93;90.11;100334.81;3604278;39;20058;-65
2023/12/08 03:49:56;;;;;;;18.35;13.68;;;;;;;3.92;90.61;100333.06;3608962;39;20047;-64
2023/12/08 03:52:22;;;;;;;18.20;13.25;;;;;;;3.92;90.17;100317.09;3607855;39;20379;-64
2023/12/08 03:54:47;;;;;;;18.70;13.60;;;;;;;3.94;90.48;100323.22;3607724;39;20067;-65
2023/12/08 03:57:13;;;;;;;19.20;14.18;;;;;;;3.95;90.82;100326.75;3610834;39;20063;-65
2023/12/08 03:59:41;;;;;;;18.63;13.85;;;;;;;3.94;90.83;100325.88;3610752;39;20069;-65
2023/12/08 04:02:07;;;;;;;19.00;13.45;;;;;;;3.93;91.11;100317.97;3608188;39;20059;-65
2023/12/08 04:04:32;;;;;;;18.38;13.45;;;;;;;3.92;90.74;100311.78;3612421;39;20332;-65
2023/12/08 04:06:58;;;;;;;18.77;14.48;;;;;;;3.92;90.55;100301.16;3607981;39;20299;-64
2023/12/08 04:09:24;;;;;;;18.75;13.55;;;;;;;3.94;90.77;100299.31;3608595;39;20078;-65
2023/12/08 04:11:49;;;;;;;19.42;13.52;;;;;;;3.90;91.05;100295.06;3607629;39;20400;-65
2023/12/08 04:14:15;;;;;;;18.80;13.98;;;;;;;3.89;90.48;100285.31;3611897;39;20058;-64
2023/12/08 04:16:41;;;;;;;18.27;13.45;;;;;;;3.88;90.64;100278.28;3609967;39;20059;-64
2023/12/08 04:19:06;;;;;;;18.17;13.50;;;;;;;3.88;91.01;100294.25;3610034;39;20055;-64
2023/12/08 04:21:32;;;;;;;19.70;13.77;;;;;;;3.90;90.99;100286.19;3605292;39;20391;-64
2023/12/08 04:23:58;;;;;;;20.55;13.93;;;;;;;3.92;91.21;100316.25;3606532;39;20071;-64
2023/12/08 04:26:25;;;;;;;18.10;13.38;;;;;;;3.91;91.40;100315.38;3607678;39;20054;-64
2023/12/08 04:28:54;;;;;;;21.88;13.70;;;;;;;3.66;91.41;100248.25;3611145;39;20094;-64
2023/12/08 04:31:20;;;;;;;19.27;13.13;;;;;;;3.93;91.41;100307.31;3608571;39;20047;-64
2023/12/08 04:33:47;;;;;;;18.02;13.43;;;;;;;3.94;91.66;100299.31;3607516;39;20131;-64
2023/12/08 04:36:14;;;;;;;22.38;14.93;;;;;;;3.94;91.66;100307.28;3607185;39;20063;-64
2023/12/08 04:38:39;;;;;;;17.98;13.57;;;;;;;3.97;91.73;100306.28;3609347;39;20063;-64
2023/12/08 04:41:05;;;;;;;17.65;13.07;;;;;;;3.99;91.78;100295.56;3608033;39;20062;-64
2023/12/08 04:43:30;;;;;;;18.05;12.80;;;;;;;3.99;91.74;100280.47;3611379;39;20478;-65
2023/12/08 04:45:56;;;;;;;18.90;13.95;;;;;;;4.01;91.82;100296.38;3610561;39;20046;-64
2023/12/08 04:48:22;;;;;;;19.60;12.80;;;;;;;4.02;91.61;100301.63;3609871;39;20103;-64
2023/12/08 04:50:51;;;;;;;16.85;11.75;;;;;;;4.05;91.92;100313.94;3609737;39;20051;-64
2023/12/08 04:53:17;;;;;;;19.73;13.43;;;;;;;3.93;91.94;100286.06;3611298;39;20051;-64
2023/12/08 04:55:43;;;;;;;17.88;12.98;;;;;;;4.08;91.56;100298.69;3608377;39;20047;-64
2023/12/08 04:58:08;;;;;;;18.80;13.00;;;;;;;4.07;91.69;100298.78;3607900;39;20051;-64
2023/12/08 05:00:34;;;;;;;18.60;13.45;;;;;;;4.07;91.67;100298.78;3607496;39;20070;-64
2023/12/08 05:03:00;;;;;;;18.73;13.25;;;;;;;4.06;91.30;100305.91;3607467;39;20061;-64
2023/12/08 05:05:26;;;;;;;18.38;13.10;;;;;;;4.07;91.58;100298.78;3599384;39;20059;-64
2023/12/08 05:07:52;;;;;;;19.65;12.35;;;;;;;4.07;91.69;100299.63;3608266;39;20067;-64
2023/12/08 05:10:17;;;;;;;19.25;13.40;;;;;;;4.08;91.81;100295.16;3606942;39;20757;-64
2023/12/08 05:12:44;;;;;;;18.77;13.10;;;;;;;4.09;92.15;100289.81;3609028;39;20071;-64
2023/12/08 05:15:10;;;;;;;16.98;13.23;;;;;;;4.09;91.94;100281.81;3607174;39;20051;-64
2023/12/08 05:17:36;;;;;;;18.35;12.52;;;;;;;4.10;92.08;100280.03;3607783;39;20055;-64
2023/12/08 05:20:03;;;;;;;19.00;13.82;;;;;;;4.09;92.10;100273.84;3606376;39;20047;-64
2023/12/08 05:22:29;;;;;;;18.27;12.60;;;;;;;4.12;91.88;100264.84;3610735;39;20383;-64
2023/12/08 05:24:55;;;;;;;20.10;13.55;;;;;;;4.09;92.60;100260.56;3607109;39;20689;-64
2023/12/08 05:27:20;;;;;;;18.60;12.93;;;;;;;4.14;92.23;100276.28;3607654;39;20094;-64
2023/12/08 05:29:46;;;;;;;17.10;13.00;;;;;;;4.16;92.65;100277.09;3608749;39;20066;-64
2023/12/08 05:32:12;;;;;;;20.42;13.98;;;;;;;4.16;92.30;100271.78;3606460;39;20051;-64
2023/12/08 05:34:37;;;;;;;17.67;13.05;;;;;;;4.19;92.56;100292.91;3607736;39;20529;-64
2023/12/08 05:37:03;;;;;;;19.35;13.73;;;;;;;4.22;92.71;100291.91;3607055;39;20064;-64
2023/12/08 05:39:29;;;;;;;17.60;13.02;;;;;;;4.23;93.04;100293.66;3606584;39;20387;-64
2023/12/08 05:41:55;;;;;;;18.10;13.05;;;;;;;4.27;93.00;100292.56;3609486;39;20055;-64
2023/12/08 05:44:20;;;;;;;16.42;12.27;;;;;;;4.28;92.71;100297.84;3609912;39;20399;-64
2023/12/08 05:46:46;;;;;;;19.73;12.98;;;;;;;4.31;93.22;100297.66;3609983;39;20063;-64
2023/12/08 05:49:12;;;;;;;18.45;12.48;;;;;;;4.36;93.65;100301.00;3608232;39;20054;-64
2023/12/08 05:51:37;;;;;;;22.48;13.75;;;;;;;4.36;93.11;100303.66;3609307;39;20059;-64
2023/12/08 05:54:03;;;;;;;19.73;14.10;;;;;;;4.38;93.27;100299.16;3607253;39;20058;-64
2023/12/08 05:56:29;;;;;;;18.40;12.80;;;;;;;4.40;93.07;100297.25;3603418;39;20107;-64
2023/12/08 05:58:54;;;;;;;20.92;14.10;;;;;;;4.44;93.30;100300.69;3607187;39;20061;-64
2023/12/08 06:01:21;;;;;;;19.30;13.50;;;;;;;4.48;93.31;100293.41;3603762;39;20307;-64
2023/12/08 06:03:47;;;;;;;18.77;13.18;;;;;;;4.47;93.46;100291.66;3610075;39;20059;-64
2023/12/08 06:06:13;;;;;;;18.35;13.00;;;;;;;4.50;93.58;100286.22;3606104;39;20314;-64
2023/12/08 06:08:39;;;;;;;19.30;13.15;;;;;;;4.54;93.15;100298.47;3607140;39;20039;-64
2023/12/08 06:11:05;;;;;;;18.70;13.38;;;;;;;4.52;93.34;100295.84;3611196;39;20071;-64
2023/12/08 06:13:31;;;;;;;20.65;14.02;;;;;;;4.57;93.39;100301.00;3606042;39;20055;-64
2023/12/08 06:15:57;;;;;;;18.42;13.00;;;;;;;4.05;93.34;100205.75;3607829;39;20528;-64
2023/12/08 06:18:23;;;;;;;20.77;13.20;;;;;;;4.60;93.26;100293.72;3606097;39;20050;-65
2023/12/08 06:20:49;;;;;;;19.40;13.40;;;;;;;4.61;93.27;100305.22;3605685;39;20136;-65
2023/12/08 06:23:14;;;;;;;19.73;14.07;;;;;;;4.61;93.96;100294.59;3607423;39;20047;-65
2023/12/08 06:25:40;;;;;;;18.02;13.30;;;;;;;4.65;94.21;100299.69;3610352;39;20056;-64
2023/12/08 06:28:05;;;;;;;15.90;11.95;;;;;;;4.67;94.30;100302.28;3607562;39;20062;-65
2023/12/08 06:30:31;;;;;;;24.13;13.18;;;;;;;4.69;94.08;100305.72;3607617;39;20430;-67
2023/12/08 06:32:56;;;;;;;19.98;12.98;;;;;;;4.71;94.34;100314.50;3606273;39;20056;-65
2023/12/08 06:35:22;;;;;;;18.50;13.43;;;;;;;4.73;93.90;100310.00;3606078;39;20057;-64
2023/12/08 06:37:48;;;;;;;21.40;13.02;;;;;;;4.67;94.50;100293.44;3609771;39;20890;-65
2023/12/08 06:40:13;;;;;;;20.30;13.68;;;;;;;4.78;94.34;100307.09;3608825;39;20047;-65
2023/12/08 06:42:39;;;;;;;20.90;13.70;;;;;;;4.78;94.21;100307.09;3607369;39;20094;-65
2023/12/08 06:45:07;;;;;;;20.23;14.38;;;;;;;4.75;94.08;100308.09;3609703;39;20065;-65
2023/12/08 06:47:33;;;;;;;19.65;13.50;;;;;;;4.81;94.08;100323.81;3604852;39;20172;-65
2023/12/08 06:49:59;;;;;;;23.73;12.85;;;;;;;4.83;94.31;100321.94;3609827;39;20059;-65
2023/12/08 06:52:24;;;;;;;18.45;13.68;;;;;;;4.83;94.23;100316.63;3607953;39;20057;-65
2023/12/08 06:54:50;;;;;;;19.40;12.93;;;;;;;4.83;94.70;100319.28;3608940;39;20058;-65
2023/12/08 06:57:15;;;;;;;22.55;13.77;;;;;;;4.80;94.46;100324.75;3609070;39;20466;-65
2023/12/08 06:59:41;;;;;;;19.15;13.45;;;;;;;4.83;95.08;100324.59;3608280;39;20299;-64
2023/12/08 07:02:06;;;;;;;19.17;13.88;;;;;;;4.86;95.25;100329.78;3609042;39;20050;-64
2023/12/08 07:04:32;;;;;;;22.38;13.82;;;;;;;4.88;95.11;100327.03;3608408;39;20075;-64
2023/12/08 07:06:58;;;;;;;22.33;14.57;;;;;;;4.90;94.82;100325.19;3608722;39;20051;-64
2023/12/08 07:09:23;;;;;;;23.58;14.98;;;;;;;4.92;95.15;100327.78;3605795;39;20051;-64
2023/12/08 07:11:49;;;;;;;21.17;14.27;;;;;;;4.95;95.06;100324.94;3608642;39;20047;-64
2023/12/08 07:14:14;;;;;;;21.20;15.27;;;;;;;4.94;95.60;100328.56;3611711;39;20062;-64
2023/12/08 07:16:44;;;;;;;22.02;15.23;;;;;;;4.94;96.34;100329.41;3608054;39;20039;-64
2023/12/08 07:19:10;;;;;;;21.92;15.35;;;;;;;4.95;96.05;100325.84;3608989;39;20275;-64
2023/12/08 07:21:43;;;;;;;22.75;15.52;;;;;;;4.98;95.86;100325.69;3610262;39;20055;-64
2023/12/08 07:24:10;;;;;;;24.10;16.65;;;;;;;5.01;95.78;100330.00;3608997;39;20416;-64
2023/12/08 07:26:36;;;;;;;21.08;15.43;;;;;;;5.03;96.35;100330.81;3610440;39;20055;-65
2023/12/08 07:29:02;;;;;;;23.73;15.43;;;;;;;4.92;95.96;100318.00;3609000;39;21763;-64
2023/12/08 07:31:28;;;;;;;23.63;15.77;;;;;;;5.05;95.66;100337.78;3607646;39;20380;-64
2023/12/08 07:33:54;;;;;;;20.77;15.57;;;;;;;5.05;96.50;100343.13;3610005;39;20062;-64
2023/12/08 07:36:19;;;;;;;23.52;14.23;;;;;;;5.07;96.48;100348.34;3606574;39;20107;-64
2023/12/08 07:38:45;;;;;;;22.20;15.45;;;;;;;5.06;95.97;100349.31;3607394;39;20059;-64
2023/12/08 07:41:11;;;;;;;22.40;15.23;;;;;;;5.05;96.21;100348.44;3610314;39;20059;-64
2023/12/08 07:43:37;;;;;;;23.13;15.80;;;;;;;5.09;96.77;100362.47;3606685;39;20435;-64
2023/12/08 07:46:03;;;;;;;22.73;15.70;;;;;;;5.11;96.94;100357.97;3608524;39;20055;-64
2023/12/08 07:48:29;;;;;;;23.92;15.75;;;;;;;5.10;96.72;100366.88;3609126;39;20103;-64
2023/12/08 07:50:55;;;;;;;26.25;16.40;;;;;;;5.12;97.50;100370.31;3607866;39;20063;-64
2023/12/08 07:53:21;;;;;;;21.95;15.43;;;;;;;5.13;97.50;100375.56;3607765;39;20057;-64
2023/12/08 07:55:47;;;;;;;23.75;16.50;;;;;;;5.13;97.60;100372.91;3605736;39;20063;-64
2023/12/08 07:58:12;;;;;;;27.63;17.15;;;;;;;5.15;97.64;100370.19;3608993;39;20063;-63
2023/12/08 08:00:38;;;;;;;30.75;17.40;;;;;;;5.19;97.91;100371.75;3607635;39;20058;-65
2023/12/08 08:03:06;;;;;;;29.08;17.77;;;;;;;5.21;97.64;100369.03;3605986;39;20334;-65
2023/12/08 08:05:32;;;;;;;28.58;18.77;;;;;;;5.22;98.26;100374.28;3608551;39;20046;-64
2023/12/08 08:07:58;;;;;;;27.23;18.33;;;;;;;5.23;97.95;100373.38;3609849;39;20087;-64
2023/12/08 08:10:23;;;;;;;29.67;17.58;;;;;;;5.24;98.25;100369.75;3609194;39;20051;-64
2023/12/08 08:12:49;;;;;;;28.10;18.98;;;;;;;5.27;98.49;100374.94;3606102;39;20051;-65
2023/12/08 08:15:14;;;;;;;35.47;20.40;;;;;;;5.29;98.76;100377.53;3606540;39;20101;-65
2023/12/08 08:17:40;;;;;;;28.63;19.75;;;;;;;5.31;98.62;100371.19;3605165;39;20124;-64
2023/12/08 08:20:07;;;;;;;32.85;19.48;;;;;;;5.34;98.80;100372.84;3606101;39;20058;-65
2023/12/08 08:22:33;;;;;;;36.35;20.23;;;;;;;5.37;98.91;100382.50;3606857;39;20351;-64
2023/12/08 08:25:00;;;;;;;34.05;20.05;;;;;;;5.39;99.12;100377.94;3606748;39;20061;-64
2023/12/08 08:27:25;;;;;;;36.65;21.70;;;;;;;5.44;99.23;100375.94;3605399;39;20046;-64
2023/12/08 08:29:51;;;;;;;34.67;20.58;;;;;;;5.48;99.36;100383.69;3608338;39;20090;-64
2023/12/08 08:32:17;;;;;;;34.25;20.42;;;;;;;5.52;99.10;100374.66;3604815;39;20063;-64
2023/12/08 08:34:43;;;;;;;36.70;22.45;;;;;;;5.54;99.32;100371.88;3606686;39;20085;-65
2023/12/08 08:37:09;;;;;;;36.78;21.63;;;;;;;5.61;99.57;100378.63;3608255;39;20334;-64
2023/12/08 08:39:35;;;;;;;35.60;21.17;;;;;;;5.63;99.62;100382.09;3606024;39;20500;-64
2023/12/08 08:42:00;;;;;;;34.15;21.42;;;;;;;5.69;100.00;100384.47;3605811;39;20781;-64
2023/12/08 08:44:27;;;;;;;39.63;22.08;;;;;;;5.63;100.00;100370.59;3596584;39;20084;-65
2023/12/08 08:46:53;;;;;;;38.53;21.88;;;;;;;5.76;100.00;100388.56;3604245;39;20047;-65
2023/12/08 08:49:19;;;;;;;39.00;22.65;;;;;;;5.80;99.68;100400.84;3605592;39;20076;-64
2023/12/08 08:51:44;;;;;;;41.78;23.25;;;;;;;5.85;100.00;100405.06;3607857;39;20073;-64
2023/12/08 08:54:10;;;;;;;40.22;22.88;;;;;;;5.90;100.00;100397.69;3607490;39;20307;-64
2023/12/08 08:56:36;;;;;;;41.20;23.33;;;;;;;5.94;100.00;100401.97;3604926;39;20086;-64
2023/12/08 08:59:03;;;;;;;38.83;22.63;;;;;;;5.97;100.00;100402.69;3607900;39;20139;-64
2023/12/08 09:01:29;;;;;;;35.97;21.95;;;;;;;6.00;100.00;100407.03;3604556;39;20047;-64
2023/12/08 09:03:54;;;;;;;37.50;22.30;;;;;;;6.00;100.00;100399.03;3605139;39;20388;-64
2023/12/08 09:06:20;;;;;;;41.95;22.33;;;;;;;6.08;100.00;100410.16;3604905;39;20131;-64
2023/12/08 09:08:46;;;;;;;36.80;20.83;;;;;;;6.11;100.00;100420.66;3603538;39;20090;-64
2023/12/08 09:11:12;;;;;;;40.33;21.38;;;;;;;6.15;100.00;100426.72;3605116;39;20096;-64
2023/12/08 09:13:37;;;;;;;31.02;18.88;;;;;;;6.17;100.00;100414.16;3603562;39;20051;-64
2023/12/08 09:16:04;;;;;;;34.97;19.05;;;;;;;6.21;100.00;100413.94;3608820;39;20062;-64
2023/12/08 09:18:30;;;;;;;39.75;19.35;;;;;;;6.23;100.00;100412.06;3602848;39;20051;-64
2023/12/08 09:20:55;;;;;;;35.05;19.00;;;;;;;6.30;100.00;100415.28;3610270;39;20272;-64
2023/12/08 09:23:21;;;;;;;33.65;18.58;;;;;;;6.35;100.00;100418.59;3611713;39;20251;-65
2023/12/08 09:25:47;;;;;;;35.88;18.15;;;;;;;6.36;100.00;100416.78;3607162;39;20071;-65
2023/12/08 09:28:13;;;;;;;36.33;18.77;;;;;;;6.40;100.00;100419.19;3609930;39;20062;-65
2023/12/08 09:30:39;;;;;;;34.17;18.05;;;;;;;6.43;100.00;100415.50;3606539;39;20046;-65
2023/12/08 09:33:04;;;;;;;31.48;17.48;;;;;;;6.47;100.00;100417.06;3606640;39;20057;-65
2023/12/08 09:35:30;;;;;;;35.47;17.88;;;;;;;6.51;100.00;100424.88;3603590;39;20098;-65
2023/12/08 09:37:55;;;;;;;33.58;17.73;;;;;;;6.54;100.00;100429.19;3607560;39;20055;-65
2023/12/08 09:40:24;;;;;;;36.83;17.65;;;;;;;6.59;100.00;100432.47;3606500;39;20054;-65
2023/12/08 09:43:00;;;;;;;31.92;17.65;;;;;;;6.63;100.00;100438.50;3612013;39;20307;-65
2023/12/08 09:45:28;;;;;;;34.47;17.60;;;;;;;6.67;100.00;100440.09;3604763;39;20088;-65
2023/12/08 09:47:54;;;;;;;34.55;17.05;;;;;;;6.68;100.00;100434.66;3610756;39;20042;-62
2023/12/08 09:50:22;;;;;;;31.08;17.92;;;;;;;6.73;100.00;100439.78;3608935;39;20045;-62
2023/12/08 09:52:49;;;;;;;31.55;17.42;;;;;;;6.77;100.00;100440.47;3606261;39;20054;-65
2023/12/08 09:55:16;;;;;;;31.13;17.95;;;;;;;6.81;100.00;100447.38;3607768;39;20050;-63
2023/12/08 09:57:45;;;;;;;34.10;17.65;;;;;;;6.84;100.00;100447.22;3605634;39;20415;-63
2023/12/08 10:00:15;;;;;;;34.80;17.23;;;;;;;6.89;100.00;100451.38;3609460;39;20044;-63
2023/12/08 10:02:41;;;;;;;31.27;16.77;;;;;;;6.95;100.00;100458.22;3609538;39;20090;-63
2023/12/08 10:05:11;;;;;;;32.72;17.23;;;;;;;6.98;100.00;100456.25;3609610;39;20119;-64
2023/12/08 10:07:43;;;;;;;30.85;16.40;;;;;;;7.04;100.00;100448.84;3608232;39;20244;-63
2023/12/08 10:10:09;;;;;;;35.17;17.27;;;;;;;7.11;100.00;100452.94;3612491;39;20048;-63
2023/12/08 10:12:37;;;;;;;28.38;16.17;;;;;;;7.18;100.00;100443.63;3606749;39;20075;-64
2023/12/08 10:15:09;;;;;;;30.25;17.00;;;;;;;7.21;100.00;100441.66;3597414;39;20050;-63
2023/12/08 10:17:38;;;;;;;30.90;16.60;;;;;;;7.28;100.00;100438.66;3605970;39;20051;-63
2023/12/08 10:20:12;;;;;;;29.80;16.95;;;;;;;7.32;100.00;100434.84;3605975;39;20073;-64
2023/12/08 10:22:49;;;;;;;33.40;16.50;;;;;;;7.37;100.00;100432.78;3610320;39;20106;-64
2023/12/08 10:25:18;;;;;;;31.95;16.05;;;;;;;7.41;100.00;100442.38;3609104;39;20054;-64
2023/12/08 10:27:55;;;;;;;36.85;16.80;;;;;;;7.47;100.00;100444.72;3612106;39;20055;-63
2023/12/08 10:30:24;;;;;;;34.30;16.63;;;;;;;7.48;100.00;100446.41;3610610;39;20507;-63
2023/12/08 10:32:50;;;;;;;30.40;15.10;;;;;;;7.48;100.00;100443.75;3606315;39;20059;-64
2023/12/08 10:35:16;;;;;;;29.63;14.55;;;;;;;7.58;100.00;100457.47;3611930;39;20440;-63
2023/12/08 10:37:44;;;;;;;31.33;16.05;;;;;;;7.63;100.00;100458.09;3609554;39;20047;-63
2023/12/08 10:40:13;;;;;;;30.60;16.35;;;;;;;7.66;100.00;100458.78;3614018;39;20043;-63
2023/12/08 10:42:40;;;;;;;33.92;15.77;;;;;;;7.67;100.00;100447.16;3607930;39;20054;-63
2023/12/08 10:45:10;;;;;;;33.03;15.25;;;;;;;7.70;100.00;100464.81;3613429;39;20059;-63
2023/12/08 10:47:40;;;;;;;35.05;15.80;;;;;;;7.74;100.00;100468.19;3611454;39;20344;-63
2023/12/08 10:50:09;;;;;;;32.05;16.25;;;;;;;7.78;100.00;100461.75;3610986;39;20051;-63
2023/12/08 10:52:40;;;;;;;31.63;15.73;;;;;;;7.80;100.00;100466.06;3606789;39;20314;-64
2023/12/08 10:55:08;;;;;;;30.70;15.55;;;;;;;7.80;100.00;100451.78;3611406;39;20045;-63
2023/12/08 10:57:36;;;;;;;33.50;16.60;;;;;;;7.82;100.00;100436.53;3605343;39;20094;-63
2023/12/08 11:00:12;;;;;;;34.80;15.70;;;;;;;7.91;100.00;100441.34;3612917;39;20393;-64
2023/12/08 11:02:45;;;;;;;31.02;16.13;;;;;;;7.94;100.00;100449.22;3610015;39;20059;-63
2023/12/08 11:05:21;;;;;;;30.73;16.02;;;;;;;7.98;100.00;100452.56;3610898;39;20057;-63
2023/12/08 11:07:52;;;;;;;37.20;17.60;;;;;;;8.00;100.00;100456.03;3608557;39;20055;-63
2023/12/08 11:10:18;;;;;;;37.25;16.88;;;;;;;8.02;100.00;100448.75;3609699;39;20315;-63